createdAt,value
2023-04-14T00:02:21.340Z,6.50
2023-04-14T00:04:54.877Z,6.50
2023-04-14T00:07:24.753Z,6.50
2023-04-14T00:09:54.606Z,6.50
2023-04-14T00:12:27.118Z,6.40
2023-04-14T00:14:56.983Z,6.40
2023-04-14T00:17:26.910Z,6.40
2023-04-14T00:19:56.859Z,6.30
2023-04-14T00:22:27.172Z,6.20
2023-04-14T00:24:57.060Z,6.20
2023-04-14T00:27:29.654Z,6.20
2023-04-14T00:29:59.651Z,6.20
2023-04-14T00:32:29.609Z,6.20
2023-04-14T00:35:00.328Z,6.10
2023-04-14T00:37:30.184Z,6.10
2023-04-14T00:40:00.140Z,6.00
2023-04-14T00:42:32.705Z,6.00
2023-04-14T00:45:02.565Z,6.00
2023-04-14T00:47:32.980Z,5.90
2023-04-14T00:50:03.888Z,5.90
2023-04-14T00:52:34.621Z,5.90
2023-04-14T00:55:05.740Z,5.80
2023-04-14T00:57:38.542Z,5.80
2023-04-14T01:00:09.894Z,5.70
2023-04-14T01:02:39.900Z,5.70
2023-04-14T01:05:10.556Z,5.60
2023-04-14T01:07:40.909Z,5.60
2023-04-14T01:10:11.759Z,5.70
2023-04-14T01:13:08.974Z,5.70
2023-04-14T01:15:42.759Z,5.60
2023-04-14T01:18:19.885Z,5.50
2023-04-14T01:20:54.374Z,5.50
2023-04-14T01:23:28.617Z,5.40
2023-04-14T01:26:18.440Z,5.40
2023-04-14T01:29:27.599Z,5.40
2023-04-14T01:32:05.713Z,5.30
2023-04-14T01:34:40.477Z,5.30
2023-04-14T01:37:13.873Z,5.20
2023-04-14T01:39:47.788Z,5.20
2023-04-14T01:42:21.861Z,5.10
2023-04-14T01:44:54.914Z,5.20
2023-04-14T01:47:28.723Z,5.20
2023-04-14T01:50:00.166Z,5.20
2023-04-14T01:52:32.601Z,5.10
2023-04-14T01:55:09.952Z,5.10
2023-04-14T01:57:41.765Z,5.00
2023-04-14T02:00:13.871Z,5.00
2023-04-14T02:02:49.506Z,5.00
2023-04-14T02:05:21.385Z,5.00
2023-04-14T02:07:54.210Z,4.90
2023-04-14T02:10:26.281Z,4.90
2023-04-14T02:12:59.334Z,4.90
2023-04-14T02:15:29.479Z,4.90
2023-04-14T02:18:03.461Z,4.80
2023-04-14T02:20:33.463Z,4.90
2023-04-14T02:23:03.840Z,4.90
2023-04-14T02:25:36.500Z,4.90
2023-04-14T02:28:09.717Z,4.90
2023-04-14T02:30:42.202Z,4.90
2023-04-14T02:33:19.532Z,4.90
2023-04-14T02:35:51.308Z,4.90
2023-04-14T02:38:25.498Z,4.90
2023-04-14T02:40:55.436Z,5.00
2023-04-14T02:43:32.227Z,5.00
2023-04-14T02:46:04.690Z,5.00
2023-04-14T02:48:38.642Z,5.00
2023-04-14T02:51:09.939Z,5.10
2023-04-14T02:53:40.168Z,5.00
2023-04-14T02:56:10.995Z,5.00
2023-04-14T02:58:42.066Z,5.00
2023-04-14T03:01:12.562Z,5.10
2023-04-14T03:03:45.275Z,5.10
2023-04-14T03:06:16.476Z,5.10
2023-04-14T03:08:47.603Z,5.10
2023-04-14T03:11:18.316Z,5.00
2023-04-14T03:13:49.517Z,5.00
2023-04-14T03:16:23.502Z,5.00
2023-04-14T03:18:57.144Z,5.00
2023-04-14T03:21:28.441Z,5.10
2023-04-14T03:23:59.325Z,5.00
2023-04-14T03:26:31.504Z,5.10
2023-04-14T03:29:03.635Z,5.10
2023-04-14T03:31:37.106Z,5.10
2023-04-14T03:34:11.200Z,5.10
2023-04-14T03:36:42.469Z,5.10
2023-04-14T03:39:14.805Z,5.20
2023-04-14T03:41:48.721Z,5.20
2023-04-14T03:44:20.899Z,5.20
2023-04-14T03:46:51.051Z,5.20
2023-04-14T03:49:25.873Z,5.20
2023-04-14T03:52:01.652Z,5.20
2023-04-14T03:54:34.844Z,5.20
2023-04-14T03:57:07.789Z,5.10
2023-04-14T03:59:39.353Z,5.10
2023-04-14T04:02:10.496Z,5.10
2023-04-14T04:04:44.268Z,5.10
2023-04-14T04:07:16.128Z,4.90
2023-04-14T04:09:48.707Z,4.80
2023-04-14T04:12:22.469Z,4.70
2023-04-14T04:14:52.455Z,4.60
2023-04-14T04:17:26.785Z,4.50
2023-04-14T04:20:02.185Z,4.40
2023-04-14T04:22:34.194Z,4.40
2023-04-14T04:25:04.400Z,4.40
2023-04-14T04:27:34.690Z,4.40
2023-04-14T04:30:04.959Z,4.40
2023-04-14T04:32:34.877Z,4.40
2023-04-14T04:35:09.024Z,4.30
2023-04-14T04:37:40.561Z,4.30
2023-04-14T04:40:11.892Z,4.30
2023-04-14T04:42:45.163Z,4.30
2023-04-14T04:45:15.769Z,4.20
2023-04-14T04:47:45.710Z,4.10
2023-04-14T04:50:19.136Z,4.10
2023-04-14T04:52:49.131Z,4.10
2023-04-14T04:55:19.162Z,4.10
2023-04-14T04:57:48.983Z,4.10
2023-04-14T05:00:19.686Z,4.00
2023-04-14T05:02:49.622Z,4.00
2023-04-14T05:05:22.229Z,4.00
2023-04-14T05:07:52.142Z,4.10
2023-04-14T05:10:22.965Z,4.20
2023-04-14T05:12:52.809Z,4.20
2023-04-14T05:15:22.682Z,4.40
2023-04-14T05:17:52.582Z,4.80
2023-04-14T05:20:25.316Z,5.10
2023-04-14T05:22:55.615Z,5.70
2023-04-14T05:25:25.458Z,6.90
2023-04-14T05:27:55.259Z,7.60
2023-04-14T05:30:25.133Z,8.20
2023-04-14T05:32:55.095Z,9.00
2023-04-14T05:35:27.735Z,9.00
2023-04-14T05:37:57.597Z,8.40
2023-04-14T05:40:28.431Z,6.70
2023-04-14T05:42:58.288Z,5.90
2023-04-14T05:45:28.196Z,5.90
2023-04-14T05:47:58.403Z,5.90
2023-04-14T05:50:31.198Z,5.70
2023-04-14T05:53:01.165Z,5.70
2023-04-14T05:55:31.153Z,5.70
2023-04-14T05:58:01.219Z,5.90
2023-04-14T06:00:31.726Z,5.90
2023-04-14T06:03:01.770Z,6.00
2023-04-14T06:05:34.926Z,5.90
2023-04-14T06:08:04.773Z,6.20
2023-04-14T06:10:35.711Z,6.40
2023-04-14T06:13:05.620Z,6.30
2023-04-14T06:15:35.504Z,6.40
2023-04-14T06:18:05.407Z,6.60
2023-04-14T06:20:38.249Z,6.50
2023-04-14T06:23:08.278Z,6.60
2023-04-14T06:25:38.159Z,6.70
2023-04-14T06:28:08.053Z,6.90
2023-04-14T06:30:37.872Z,6.80
2023-04-14T06:33:08.204Z,6.90
2023-04-14T06:35:40.873Z,7.00
2023-04-14T06:38:10.811Z,7.20
2023-04-14T06:40:40.678Z,7.30
2023-04-14T06:43:12.595Z,7.50
2023-04-14T06:45:42.496Z,7.20
2023-04-14T06:48:13.380Z,7.30
2023-04-14T06:50:45.906Z,7.40
2023-04-14T06:53:15.822Z,7.50
2023-04-14T06:55:45.989Z,7.40
2023-04-14T06:58:15.951Z,7.40
2023-04-14T07:00:45.819Z,7.50
2023-04-14T07:03:15.777Z,7.60
2023-04-14T07:05:48.230Z,7.50
2023-04-14T07:08:18.175Z,7.80
2023-04-14T07:10:48.061Z,7.90
2023-04-14T07:13:20.606Z,8.00
2023-04-14T07:15:50.586Z,8.20
2023-04-14T07:18:20.609Z,8.30
2023-04-14T07:20:54.288Z,8.50
2023-04-14T07:23:24.211Z,8.30
2023-04-14T07:25:54.794Z,8.40
2023-04-14T07:28:25.125Z,8.60
2023-04-14T07:30:55.538Z,8.30
2023-04-14T07:33:27.197Z,8.30
2023-04-14T07:36:03.415Z,8.60
2023-04-14T07:38:33.841Z,9.00
2023-04-14T07:41:06.997Z,8.80
2023-04-14T07:43:38.843Z,8.80
2023-04-14T07:46:10.942Z,9.00
2023-04-14T07:48:41.796Z,8.90
2023-04-14T07:51:14.408Z,9.20
2023-04-14T07:53:45.421Z,9.40
2023-04-14T07:56:15.704Z,9.20
2023-04-14T07:58:45.790Z,9.10
2023-04-14T08:01:15.857Z,9.00
2023-04-14T08:03:46.253Z,9.00
2023-04-14T08:06:19.198Z,8.90
2023-04-14T08:08:49.051Z,9.30
2023-04-14T08:11:18.901Z,9.50
2023-04-14T08:13:49.934Z,9.60
2023-04-14T08:16:19.870Z,9.70
2023-04-14T08:18:49.900Z,9.70
2023-04-14T08:21:22.345Z,10.00
2023-04-14T08:23:52.703Z,10.40
2023-04-14T08:26:22.918Z,9.70
2023-04-14T08:28:52.760Z,10.00
2023-04-14T08:31:25.192Z,10.00
2023-04-14T08:33:55.613Z,9.70
2023-04-14T08:36:28.110Z,9.90
2023-04-14T08:38:58.192Z,10.40
2023-04-14T08:41:29.416Z,10.40
2023-04-14T08:43:59.300Z,10.40
2023-04-14T08:46:30.402Z,10.10
2023-04-14T08:49:06.919Z,10.40
2023-04-14T08:51:45.507Z,10.60
2023-04-14T08:54:16.443Z,10.60
2023-04-14T08:56:46.390Z,10.50
2023-04-14T08:59:16.344Z,10.10
2023-04-14T09:01:46.781Z,10.50
2023-04-14T09:04:17.894Z,10.50
2023-04-14T09:06:50.451Z,10.60
2023-04-14T09:09:21.782Z,10.90
2023-04-14T09:11:52.555Z,10.70
2023-04-14T09:14:23.473Z,11.10
2023-04-14T09:16:55.014Z,11.20
2023-04-14T09:19:25.704Z,11.50
2023-04-14T09:21:58.666Z,11.20
2023-04-14T09:24:34.185Z,11.10
2023-04-14T09:27:06.924Z,11.10
2023-04-14T09:29:37.498Z,11.40
2023-04-14T09:32:07.997Z,12.00
2023-04-14T09:34:38.070Z,11.60
2023-04-14T09:37:12.678Z,11.10
2023-04-14T09:39:51.766Z,11.40
2023-04-14T09:42:22.031Z,11.90
2023-04-14T09:44:56.425Z,11.80
2023-04-14T09:47:26.752Z,11.10
2023-04-14T09:49:59.771Z,11.80
2023-04-14T09:52:46.948Z,11.60
2023-04-14T09:55:18.623Z,11.50
2023-04-14T09:57:51.908Z,11.50
2023-04-14T10:00:24.745Z,11.70
2023-04-14T10:02:56.513Z,11.60
2023-04-14T10:05:32.163Z,11.60
2023-04-14T10:08:08.655Z,11.80
2023-04-14T10:10:38.675Z,11.90
2023-04-14T10:13:08.496Z,12.50
2023-04-14T10:15:39.158Z,12.10
2023-04-14T10:18:09.186Z,12.30
2023-04-14T10:20:39.910Z,12.40
2023-04-14T10:23:12.444Z,11.90
2023-04-14T10:25:42.640Z,11.60
2023-04-14T10:28:12.658Z,12.30
2023-04-14T10:30:43.684Z,12.10
2023-04-14T10:33:13.812Z,12.50
2023-04-14T10:35:48.097Z,12.80
2023-04-14T10:38:20.699Z,12.80
2023-04-14T10:40:51.108Z,12.40
2023-04-14T10:43:21.568Z,12.40
2023-04-14T10:45:58.149Z,12.00
2023-04-14T10:48:28.751Z,11.90
2023-04-14T10:51:01.850Z,12.30
2023-04-14T10:53:41.452Z,12.40
2023-04-14T10:56:11.621Z,12.60
2023-04-14T10:58:41.726Z,12.60
2023-04-14T11:01:28.755Z,11.90
2023-04-14T11:03:58.964Z,12.20
2023-04-14T11:06:58.979Z,12.20
2023-04-14T11:09:37.292Z,12.20
2023-04-14T11:12:21.419Z,12.60
2023-04-14T11:14:51.602Z,12.70
2023-04-14T11:17:23.933Z,12.80
2023-04-14T11:19:57.397Z,13.60
2023-04-14T11:22:44.000Z,13.80
2023-04-14T11:25:17.915Z,13.80
2023-04-14T11:27:49.218Z,14.20
2023-04-14T11:30:20.339Z,13.60
2023-04-14T11:32:51.868Z,13.60
2023-04-14T11:35:22.244Z,13.80
2023-04-14T11:37:55.891Z,14.50
2023-04-14T11:40:29.401Z,13.70
2023-04-14T11:43:00.829Z,13.60
2023-04-14T11:45:31.932Z,13.90
2023-04-14T11:48:03.394Z,14.20
2023-04-14T11:50:36.017Z,14.20
2023-04-14T11:53:10.725Z,14.40
2023-04-14T11:55:45.373Z,14.30
2023-04-14T11:58:16.029Z,14.00
2023-04-14T12:00:46.274Z,13.90
2023-04-14T12:03:16.257Z,13.80
2023-04-14T12:05:46.831Z,13.20
2023-04-14T12:08:16.878Z,12.90
2023-04-14T12:10:49.289Z,12.70
2023-04-14T12:13:19.208Z,12.50
2023-04-14T12:15:49.151Z,12.90
2023-04-14T12:21:11.767Z,12.60
2023-04-14T12:23:42.564Z,12.60
2023-04-14T12:26:15.646Z,12.90
2023-04-14T12:28:45.582Z,12.80
2023-04-14T12:31:16.132Z,12.90
2023-04-14T12:33:47.497Z,12.90
2023-04-14T12:36:17.353Z,12.70
2023-04-14T12:38:50.842Z,13.00
2023-04-14T12:41:28.421Z,12.60
2023-04-14T12:43:58.360Z,12.60
2023-04-14T12:46:29.516Z,13.00
2023-04-14T12:48:59.713Z,12.90
2023-04-14T12:51:29.988Z,12.80
2023-04-14T12:54:09.596Z,12.90
2023-04-14T12:56:44.711Z,13.00
2023-04-14T12:59:15.452Z,12.60
2023-04-14T13:01:45.416Z,12.70
2023-04-14T13:04:15.355Z,13.20
2023-04-14T13:06:45.318Z,13.10
2023-04-14T13:09:15.199Z,13.10
2023-04-14T13:11:47.652Z,12.80
2023-04-14T13:14:17.510Z,12.90
2023-04-14T13:16:47.401Z,12.70
2023-04-14T13:19:17.337Z,12.70
2023-04-14T13:21:47.157Z,12.70
2023-04-14T13:24:16.976Z,12.80
2023-04-14T13:26:49.673Z,13.30
2023-04-14T13:29:19.701Z,13.10
2023-04-14T13:31:49.649Z,12.90
2023-04-14T13:34:19.493Z,12.80
2023-04-14T13:36:49.467Z,12.80
2023-04-14T13:39:19.582Z,13.10
2023-04-14T13:41:52.353Z,13.70
2023-04-14T13:44:22.175Z,13.60
2023-04-14T13:46:54.240Z,13.70
2023-04-14T13:49:24.532Z,13.80
2023-04-14T13:51:54.537Z,13.80
2023-04-14T13:54:24.385Z,13.80
2023-04-14T13:56:56.905Z,13.70
2023-04-14T13:59:27.989Z,13.90
2023-04-14T14:01:58.018Z,14.00
2023-04-14T14:04:28.055Z,14.10
2023-04-14T14:06:57.946Z,14.40
2023-04-14T14:09:27.889Z,14.30
2023-04-14T14:12:00.269Z,14.50
2023-04-14T14:14:30.145Z,14.60
2023-04-14T14:16:59.974Z,14.50
2023-04-14T14:19:29.867Z,14.60
2023-04-14T14:21:59.690Z,14.90
2023-04-14T14:24:30.267Z,14.80
2023-04-14T14:27:03.215Z,14.20
2023-04-14T14:29:35.037Z,14.10
2023-04-14T14:32:05.166Z,14.00
2023-04-14T14:34:34.997Z,14.20
2023-04-14T14:37:04.864Z,14.60
2023-04-14T14:39:34.889Z,14.30
2023-04-14T14:42:07.521Z,14.60
2023-04-14T14:44:37.392Z,14.50
2023-04-14T14:47:07.421Z,14.50
2023-04-14T14:49:39.339Z,14.30
2023-04-14T14:52:13.321Z,14.00
2023-04-14T14:54:43.078Z,14.20
2023-04-14T14:57:15.509Z,14.10
2023-04-14T14:59:45.456Z,14.30
2023-04-14T15:02:15.343Z,14.30
2023-04-14T15:04:45.430Z,14.10
2023-04-14T15:07:15.527Z,14.30
2023-04-14T15:09:45.641Z,14.30
2023-04-14T15:12:18.316Z,14.40
2023-04-14T15:14:48.507Z,14.50
2023-04-14T15:17:18.397Z,14.50
2023-04-14T15:19:48.492Z,14.30
2023-04-14T15:22:18.550Z,14.10
2023-04-14T15:24:48.447Z,14.30
2023-04-14T15:27:20.872Z,14.20
2023-04-14T15:29:51.644Z,14.30
2023-04-14T15:32:25.304Z,14.20
2023-04-14T15:34:56.116Z,14.40
2023-04-14T15:37:26.290Z,14.50
2023-04-14T15:39:56.259Z,14.50
2023-04-14T15:42:28.753Z,14.50
2023-04-14T15:44:58.590Z,14.50
2023-04-14T15:47:28.708Z,14.20
2023-04-14T15:50:05.743Z,14.10
2023-04-14T15:52:40.997Z,13.90
2023-04-14T15:55:12.664Z,14.10
2023-04-14T15:57:45.095Z,14.10
2023-04-14T16:00:16.586Z,14.20
2023-04-14T16:02:47.050Z,14.00
2023-04-14T16:05:17.043Z,14.30
2023-04-14T16:07:47.411Z,14.20
2023-04-14T16:10:17.596Z,14.00
2023-04-14T16:12:50.538Z,14.00
2023-04-14T16:15:20.556Z,14.00
2023-04-14T16:17:51.291Z,13.90
2023-04-14T16:20:21.614Z,13.70
2023-04-14T16:22:52.567Z,13.70
2023-04-14T16:25:23.921Z,13.70
2023-04-14T16:27:56.508Z,13.70
2023-04-14T16:30:26.387Z,13.70
2023-04-14T16:32:57.112Z,13.70
2023-04-14T16:35:27.053Z,13.70
2023-04-14T16:37:57.020Z,13.70
2023-04-14T16:40:26.944Z,13.70
2023-04-14T16:42:59.354Z,13.60
2023-04-14T16:45:29.188Z,13.60
2023-04-14T16:47:59.121Z,13.60
2023-04-14T16:50:29.688Z,13.60
2023-04-14T16:52:59.609Z,13.60
2023-04-14T16:55:29.487Z,13.50
2023-04-14T16:58:02.352Z,13.60
2023-04-14T17:00:32.301Z,13.60
2023-04-14T17:03:02.429Z,13.50
2023-04-14T17:05:32.590Z,13.40
2023-04-14T17:08:03.729Z,13.30
2023-04-14T17:10:33.548Z,13.30
2023-04-14T17:13:05.925Z,13.30
2023-04-14T17:15:35.792Z,13.30
2023-04-14T17:18:06.095Z,13.30
2023-04-14T17:20:35.969Z,13.20
2023-04-14T17:23:06.129Z,13.10
2023-04-14T17:25:38.082Z,13.00
2023-04-14T17:28:10.528Z,12.90
2023-04-14T17:30:40.752Z,12.80
2023-04-14T17:33:11.832Z,12.70
2023-04-14T17:35:41.736Z,12.70
2023-04-14T17:38:11.628Z,12.60
2023-04-14T17:40:41.686Z,12.60
2023-04-14T17:43:14.108Z,12.50
2023-04-14T17:45:46.149Z,12.40
2023-04-14T17:48:15.990Z,12.40
2023-04-14T17:50:46.464Z,12.20
2023-04-14T17:53:17.092Z,12.20
2023-04-14T17:55:46.954Z,12.10
2023-04-14T17:58:19.392Z,12.00
2023-04-14T18:00:49.584Z,11.90
2023-04-14T18:03:19.529Z,11.80
2023-04-14T18:05:49.420Z,11.80
2023-04-14T18:08:19.360Z,11.80
2023-04-14T18:10:49.236Z,11.60
2023-04-14T18:13:21.839Z,11.60
2023-04-14T18:15:52.478Z,11.50
2023-04-14T18:18:24.632Z,11.50
2023-04-14T18:20:55.768Z,11.40
2023-04-14T18:23:25.581Z,11.30
2023-04-14T18:28:39.084Z,11.10
2023-04-14T18:31:09.324Z,11.10
2023-04-14T18:33:40.307Z,11.00
2023-04-14T18:36:10.310Z,10.90
2023-04-14T18:38:40.133Z,10.80
2023-04-14T18:41:10.425Z,10.70
2023-04-14T18:43:42.838Z,10.80
2023-04-14T18:46:12.794Z,10.70
2023-04-14T18:48:43.281Z,10.60
2023-04-14T18:51:13.201Z,10.50
2023-04-14T18:53:45.319Z,10.30
2023-04-14T18:56:15.679Z,10.20
2023-04-14T18:58:48.115Z,10.10
2023-04-14T19:01:18.430Z,10.10
2023-04-14T19:03:48.384Z,10.10
2023-04-14T19:06:18.349Z,10.10
2023-04-14T19:08:48.274Z,10.00
2023-04-14T19:11:18.166Z,9.90
2023-04-14T19:13:51.764Z,9.90
2023-04-14T19:16:22.747Z,9.80
2023-04-14T19:18:52.633Z,9.70
2023-04-14T19:21:22.540Z,9.60
2023-04-14T19:23:54.519Z,9.50
2023-04-14T19:26:24.482Z,9.50
2023-04-14T19:28:58.900Z,9.40
2023-04-14T19:31:28.921Z,9.40
2023-04-14T19:33:59.085Z,9.40
2023-04-14T19:36:29.506Z,9.50
2023-04-14T19:38:59.770Z,9.40
2023-04-14T19:41:29.993Z,9.40
2023-04-14T19:44:04.065Z,9.40
2023-04-14T19:46:35.796Z,9.40
2023-04-14T19:49:05.788Z,9.50
2023-04-14T19:51:36.693Z,9.40
2023-04-14T19:54:07.415Z,9.40
2023-04-14T19:56:38.006Z,9.30
2023-04-14T19:59:10.489Z,9.20
2023-04-14T20:01:41.105Z,9.10
2023-04-14T20:04:12.352Z,9.00
2023-04-14T20:06:42.959Z,8.90
2023-04-14T20:09:12.875Z,8.90
2023-04-14T20:11:42.757Z,8.90
2023-04-14T20:14:16.250Z,8.90
2023-04-14T20:16:46.159Z,9.00
2023-04-14T20:19:16.246Z,9.00
2023-04-14T20:21:46.465Z,8.90
2023-04-14T20:24:16.339Z,8.90
2023-04-14T20:26:46.657Z,8.90
2023-04-14T20:29:19.684Z,8.80
2023-04-14T20:31:50.202Z,8.70
2023-04-14T20:34:20.127Z,8.70
2023-04-14T20:36:53.081Z,8.70
2023-04-14T20:39:23.110Z,8.70
2023-04-14T20:41:52.975Z,8.60
2023-04-14T20:44:25.434Z,8.60
2023-04-14T20:46:55.622Z,8.60
2023-04-14T20:49:26.083Z,8.40
2023-04-14T20:51:57.713Z,8.30
2023-04-14T20:54:27.853Z,8.20
2023-04-14T20:56:57.894Z,8.20
2023-04-14T20:59:30.324Z,8.20
2023-04-14T21:02:01.569Z,8.10
2023-04-14T21:04:32.499Z,8.10
2023-04-14T21:07:02.429Z,8.10
2023-04-14T21:09:32.606Z,8.10
2023-04-14T21:12:14.696Z,8.00
2023-04-14T21:15:41.335Z,7.90
2023-04-14T21:17:38.932Z,7.90
2023-04-14T21:20:10.960Z,7.90
2023-04-14T21:22:40.931Z,7.90
2023-04-14T21:25:11.566Z,7.80
2023-04-14T21:27:41.734Z,7.80
2023-04-14T21:30:14.534Z,7.80
2023-04-14T21:32:45.550Z,7.70
2023-04-14T21:35:15.522Z,7.70
2023-04-14T21:37:46.172Z,7.70
2023-04-14T21:40:16.070Z,7.60
2023-04-14T21:42:45.993Z,7.70
2023-04-14T21:45:18.681Z,7.80
2023-04-14T21:47:48.515Z,7.70
2023-04-14T21:50:18.489Z,7.60
2023-04-14T21:52:48.325Z,7.50
2023-04-14T21:55:18.372Z,7.50
2023-04-14T21:57:49.940Z,7.50
2023-04-14T22:00:26.256Z,7.40
2023-04-14T22:02:56.666Z,7.30
2023-04-14T22:05:26.625Z,7.20
2023-04-14T22:07:56.520Z,7.20
2023-04-14T22:10:31.942Z,7.20
2023-04-14T22:13:03.133Z,7.20
2023-04-14T22:15:35.581Z,7.10
2023-04-14T22:18:05.454Z,7.10
2023-04-14T22:20:35.298Z,7.10
2023-04-14T22:23:05.076Z,7.10
2023-04-14T22:25:34.982Z,7.20
2023-04-14T22:28:04.832Z,7.20
2023-04-14T22:30:37.710Z,7.20
2023-04-14T22:33:07.815Z,7.10
2023-04-14T22:35:37.677Z,7.10
2023-04-14T22:38:07.646Z,7.10
2023-04-14T22:40:37.513Z,7.00
2023-04-14T22:43:08.960Z,6.90
2023-04-14T22:45:42.852Z,6.90
2023-04-14T22:48:14.706Z,6.60
2023-04-14T22:50:44.742Z,6.50
2023-04-14T22:53:14.647Z,6.30
2023-04-14T22:55:45.787Z,6.20
2023-04-14T22:58:17.891Z,6.20
2023-04-14T23:00:50.382Z,6.20
2023-04-14T23:03:20.553Z,6.20
2023-04-14T23:05:52.023Z,6.30
2023-04-14T23:08:22.179Z,6.30
2023-04-14T23:10:52.272Z,6.30
2023-04-14T23:13:22.341Z,6.40
2023-04-14T23:15:54.895Z,6.40
2023-04-14T23:18:27.400Z,6.30
2023-04-14T23:20:57.532Z,6.30
2023-04-14T23:23:27.534Z,6.20
2023-04-14T23:25:57.840Z,6.20
2023-04-14T23:28:27.786Z,6.10
2023-04-14T23:31:00.338Z,6.00
2023-04-14T23:33:30.330Z,6.10
2023-04-14T23:36:00.207Z,6.20
2023-04-14T23:38:30.033Z,6.20
2023-04-14T23:41:00.510Z,6.10
2023-04-14T23:43:31.171Z,6.10
2023-04-14T23:46:03.576Z,5.90
2023-04-14T23:48:33.429Z,5.90
2023-04-14T23:51:16.562Z,5.90
2023-04-14T23:53:51.887Z,5.90
2023-04-14T23:56:21.838Z,5.80
2023-04-14T23:58:52.175Z,5.80
